BGUK

Upernavik Airport

Upernavik, Greenland
TAF BGUK 161756Z 1618/1623 34005KT 0100 FG VV001 PROB40 1618/1623 8000 BCFG BKN005
Issued Valid From Valid To
Jul-16 @ 17:56 UTC
(2 hours ago)
Jul-16 @ 18:00 UTC
(2 hours ago)
Jul-16 @ 23:00 UTC
(in 3 hours)
Jul-16 @ 18:00 to Jul-16 @ 23:00
TAF BGUK 161756Z 1618/1623 34005KT 0100 FG VV001
Wind Visibility Clouds Conditions
340° at 5 knots 97 meters
  • Vertical visibility at 100' AGL
  • Fog
Probable  (Probability 40%) Jul-16 @ 18:00 to Jul-16 @ 23:00
PROB40 1618/1623 8000 BCFG BKN005
Visibility Clouds Conditions
7,998 meters
  • Broken at 500' AGL
  • Patches of
  • Fog
TAF BGUK 161756Z 1618/1623 34005KT 0100 FG VV001 PROB40 1618/1623 8000 BCFG BKN005
Issued Jul-16 @ 17:56 UTC
(2 hours ago)
Valid From Jul-16 @ 18:00 UTC
(2 hours ago)
Valid To Jul-16 @ 23:00 UTC
(in 3 hours)
Jul-16 @ 18:00 - Jul-16 @ 23:00
Wind Visibility
340° at 5 knots 97 meters
Clouds
  • Vertical visibility at 100' AGL
Conditions
  • Fog
Probability 40% Probable Jul-16 @ 18:00 - Jul-16 @ 23:00
Clouds
  • Broken at 500' AGL
Conditions
  • Patches of
  • Fog